createdAt,value
2023-02-03T00:00:02.308Z,17.12
2023-02-03T00:00:12.340Z,17.12
2023-02-03T00:00:22.357Z,17.10
2023-02-03T00:00:32.339Z,17.12
2023-02-03T00:00:42.314Z,17.10
2023-02-03T00:00:52.349Z,17.14
2023-02-03T00:01:02.306Z,17.14
2023-02-03T00:01:12.332Z,17.10
2023-02-03T00:01:22.296Z,17.12
2023-02-03T00:01:32.375Z,17.09
2023-02-03T00:01:42.314Z,17.14
2023-02-03T00:01:52.345Z,17.12
2023-02-03T00:02:02.372Z,17.10
2023-02-03T00:02:12.377Z,17.12
2023-02-03T00:02:22.342Z,17.10
2023-02-03T00:02:32.313Z,17.14
2023-02-03T00:02:42.306Z,17.14
2023-02-03T00:02:52.348Z,17.14
2023-02-03T00:03:02.322Z,17.12
2023-02-03T00:03:12.381Z,17.12
2023-02-03T00:03:32.317Z,17.14
2023-02-03T00:03:42.283Z,17.14
2023-02-03T00:03:52.300Z,17.09
2023-02-03T00:04:02.297Z,17.12
2023-02-03T00:04:12.293Z,17.10
2023-02-03T00:04:22.285Z,17.14
2023-02-03T00:04:32.300Z,17.10
2023-02-03T00:04:42.275Z,17.10
2023-02-03T00:04:52.341Z,17.10
2023-02-03T00:05:02.273Z,17.12
2023-02-03T00:05:12.303Z,17.10
2023-02-03T00:05:22.296Z,17.12
2023-02-03T00:05:32.289Z,17.14
2023-02-03T00:05:42.272Z,17.17
2023-02-03T00:05:52.308Z,17.12
2023-02-03T00:06:02.265Z,17.12
2023-02-03T00:06:12.299Z,17.10
2023-02-03T00:06:22.269Z,17.14
2023-02-03T00:06:32.279Z,17.10
2023-02-03T00:06:42.260Z,17.09
2023-02-03T00:06:52.279Z,17.12
2023-02-03T00:07:02.265Z,17.14
2023-02-03T00:07:12.294Z,17.10
2023-02-03T00:07:22.263Z,17.10
2023-02-03T00:07:32.273Z,17.10
2023-02-03T00:07:42.258Z,17.09
2023-02-03T00:07:52.290Z,17.15
2023-02-03T00:08:02.253Z,17.12
2023-02-03T00:08:12.266Z,17.12
2023-02-03T00:08:22.252Z,17.14
2023-02-03T00:08:32.285Z,17.12
2023-02-03T00:08:42.263Z,17.09
2023-02-03T00:08:52.275Z,17.14
2023-02-03T00:09:02.246Z,17.12
2023-02-03T00:09:12.280Z,17.12
2023-02-03T00:09:22.249Z,17.10
2023-02-03T00:09:32.260Z,17.15
2023-02-03T00:09:42.243Z,17.09
2023-02-03T00:09:52.261Z,17.12
2023-02-03T00:10:02.262Z,17.09
2023-02-03T00:10:12.269Z,17.10
2023-02-03T00:10:22.235Z,17.12
2023-02-03T00:10:32.266Z,17.12
2023-02-03T00:10:42.238Z,17.12
2023-02-03T00:11:02.253Z,17.10
2023-02-03T00:11:12.262Z,17.09
2023-02-03T00:11:22.227Z,17.10
2023-02-03T00:11:32.259Z,17.09
2023-02-03T00:11:42.227Z,17.09
2023-02-03T00:11:52.262Z,17.10
2023-02-03T00:12:02.228Z,17.14
2023-02-03T00:12:12.259Z,17.09
2023-02-03T00:12:22.230Z,17.10
2023-02-03T00:12:32.239Z,17.14
2023-02-03T00:12:42.222Z,17.14
2023-02-03T00:12:52.233Z,17.10
2023-02-03T00:13:02.240Z,17.09
2023-02-03T00:13:12.236Z,17.10
2023-02-03T00:13:22.212Z,17.12
2023-02-03T00:13:32.230Z,17.10
2023-02-03T00:13:42.214Z,17.09
2023-02-03T00:13:52.278Z,17.09
2023-02-03T00:14:02.208Z,17.10
2023-02-03T00:14:12.243Z,17.09
2023-02-03T00:14:22.221Z,17.09
2023-02-03T00:14:32.238Z,17.10
2023-02-03T00:14:42.210Z,17.10
2023-02-03T00:14:52.242Z,17.09
2023-02-03T00:15:02.227Z,17.10
2023-02-03T00:15:12.255Z,17.10
2023-02-03T00:15:22.202Z,17.12
2023-02-03T00:15:32.242Z,17.12
2023-02-03T00:15:42.197Z,17.09
2023-02-03T00:15:52.212Z,17.09
2023-02-03T00:16:02.242Z,17.09
2023-02-03T00:16:12.312Z,17.10
2023-02-03T00:16:22.217Z,17.14
2023-02-03T00:16:32.319Z,17.10
2023-02-03T00:16:42.233Z,17.09
2023-02-03T00:16:52.207Z,17.10
2023-02-03T00:17:02.199Z,17.09
2023-02-03T00:17:12.208Z,17.10
2023-02-03T00:17:22.184Z,17.12
2023-02-03T00:17:32.232Z,17.12
2023-02-03T00:17:42.256Z,17.09
2023-02-03T00:17:52.200Z,17.12
2023-02-03T00:18:02.179Z,17.07
2023-02-03T00:18:12.212Z,17.12
2023-02-03T00:18:32.208Z,17.10
2023-02-03T00:18:42.174Z,17.07
2023-02-03T00:18:52.195Z,17.12
2023-02-03T00:19:02.180Z,17.07
2023-02-03T00:19:12.188Z,17.10
2023-02-03T00:19:22.205Z,17.14
2023-02-03T00:19:32.192Z,17.09
2023-02-03T00:19:42.173Z,17.10
2023-02-03T00:19:52.199Z,17.09
2023-02-03T00:20:02.176Z,17.10
2023-02-03T00:20:12.200Z,17.09
2023-02-03T00:20:22.168Z,17.10
2023-02-03T00:20:32.220Z,17.12
2023-02-03T00:20:42.172Z,17.10
2023-02-03T00:20:52.181Z,17.10
2023-02-03T00:21:02.165Z,17.09
2023-02-03T00:21:12.189Z,17.09
2023-02-03T00:21:22.157Z,17.10
2023-02-03T00:21:32.191Z,17.12
2023-02-03T00:21:42.160Z,17.09
2023-02-03T00:21:52.177Z,17.10
2023-02-03T00:22:02.151Z,17.10
2023-02-03T00:22:12.185Z,17.09
2023-02-03T00:22:22.149Z,17.09
2023-02-03T00:22:32.184Z,17.09
2023-02-03T00:22:42.151Z,17.09
2023-02-03T00:22:52.171Z,17.10
2023-02-03T00:23:02.150Z,17.09
2023-02-03T00:23:12.218Z,17.09
2023-02-03T00:23:22.150Z,17.07
2023-02-03T00:23:32.164Z,17.10
2023-02-03T00:23:42.142Z,17.09
2023-02-03T00:23:52.159Z,17.09
2023-02-03T00:24:02.142Z,17.10
2023-02-03T00:24:12.178Z,17.10
2023-02-03T00:24:22.161Z,17.09
2023-02-03T00:24:32.178Z,17.09
2023-02-03T00:24:42.148Z,17.07
2023-02-03T00:24:52.165Z,17.09
2023-02-03T00:25:02.137Z,17.09
2023-02-03T00:25:12.150Z,17.09
2023-02-03T00:25:22.128Z,17.09
2023-02-03T00:25:32.161Z,17.09
2023-02-03T00:25:42.135Z,17.09
2023-02-03T00:26:02.126Z,17.10
2023-02-03T00:26:12.141Z,17.10
2023-02-03T00:26:22.120Z,17.09
2023-02-03T00:26:32.141Z,17.10
2023-02-03T00:26:42.121Z,17.09
2023-02-03T00:26:52.153Z,17.06
2023-02-03T00:27:02.127Z,17.10
2023-02-03T00:27:12.158Z,17.07
2023-02-03T00:27:22.114Z,17.09
2023-02-03T00:27:32.148Z,17.10
2023-02-03T00:27:42.150Z,17.12
2023-02-03T00:27:52.200Z,17.07
2023-02-03T00:28:02.207Z,17.10
2023-02-03T00:28:12.210Z,17.07
2023-02-03T00:28:22.113Z,17.09
2023-02-03T00:28:32.136Z,17.10
2023-02-03T00:28:42.106Z,17.09
2023-02-03T00:28:52.106Z,17.07
2023-02-03T00:29:02.235Z,17.09
2023-02-03T00:29:12.115Z,17.12
2023-02-03T00:29:22.134Z,17.09
2023-02-03T00:29:32.118Z,17.09
2023-02-03T00:29:42.123Z,17.07
2023-02-03T00:29:52.097Z,17.10
2023-02-03T00:30:02.135Z,17.09
2023-02-03T00:30:12.098Z,17.06
2023-02-03T00:30:22.110Z,17.07
2023-02-03T00:30:32.091Z,17.06
2023-02-03T00:30:42.116Z,17.07
2023-02-03T00:31:02.115Z,17.10
2023-02-03T00:31:12.203Z,17.09
2023-02-03T00:31:22.338Z,17.09
2023-02-03T00:31:32.190Z,17.10
2023-02-03T00:31:42.188Z,17.10
2023-02-03T00:31:52.190Z,17.09
2023-02-03T00:32:02.235Z,17.07
2023-02-03T00:32:12.261Z,17.09
2023-02-03T00:32:22.241Z,17.07
2023-02-03T00:32:32.220Z,17.09
2023-02-03T00:32:42.234Z,17.09
2023-02-03T00:32:52.077Z,17.12
2023-02-03T00:33:02.115Z,17.09
2023-02-03T00:33:12.080Z,17.07
2023-02-03T00:33:22.089Z,17.09
2023-02-03T00:33:32.072Z,17.09
2023-02-03T00:33:42.116Z,17.09
2023-02-03T00:33:52.070Z,17.10
2023-02-03T00:34:02.089Z,17.09
2023-02-03T00:34:12.078Z,17.12
2023-02-03T00:34:22.100Z,17.07
2023-02-03T00:34:32.067Z,17.06
2023-02-03T00:34:42.102Z,17.09
2023-02-03T00:34:52.066Z,17.07
2023-02-03T00:35:02.103Z,17.07
2023-02-03T00:35:12.061Z,17.07
2023-02-03T00:35:22.099Z,17.07
2023-02-03T00:35:32.060Z,17.07
2023-02-03T00:35:42.090Z,17.09
2023-02-03T00:35:52.057Z,17.06
2023-02-03T00:36:02.069Z,17.07
2023-02-03T00:36:12.066Z,17.06
2023-02-03T00:36:22.391Z,17.07
2023-02-03T00:36:32.061Z,17.12
2023-02-03T00:36:43.138Z,17.07
2023-02-03T00:36:52.059Z,17.07
2023-02-03T00:37:02.069Z,17.10
2023-02-03T00:37:12.058Z,17.07
2023-02-03T00:37:22.079Z,17.10
2023-02-03T00:37:32.043Z,17.07
2023-02-03T00:37:42.094Z,17.09
2023-02-03T00:37:52.044Z,17.09
2023-02-03T00:38:02.071Z,17.09
2023-02-03T00:38:12.056Z,17.07
2023-02-03T00:38:22.076Z,17.09
2023-02-03T00:38:32.035Z,17.06
2023-02-03T00:38:42.051Z,17.09
2023-02-03T00:38:52.031Z,17.06
2023-02-03T00:39:02.048Z,17.06
2023-02-03T00:39:12.037Z,17.07
2023-02-03T00:39:22.066Z,17.09
2023-02-03T00:39:32.030Z,17.07
2023-02-03T00:39:42.044Z,17.06
2023-02-03T00:39:52.031Z,17.06
2023-02-03T00:40:02.069Z,17.05
2023-02-03T00:40:12.032Z,17.07
2023-02-03T00:40:22.057Z,17.06
2023-02-03T00:40:32.159Z,17.06
2023-02-03T00:40:42.057Z,17.06
2023-02-03T00:40:52.021Z,17.03
2023-02-03T00:41:02.040Z,17.07
2023-02-03T00:41:12.016Z,17.03
2023-02-03T00:41:22.082Z,17.07
2023-02-03T00:41:32.035Z,17.06
2023-02-03T00:41:42.048Z,17.07
2023-02-03T00:41:52.023Z,17.06
2023-02-03T00:42:02.043Z,17.05
2023-02-03T00:42:12.027Z,17.06
2023-02-03T00:42:22.042Z,17.03
2023-02-03T00:42:32.011Z,17.09
2023-02-03T00:42:42.024Z,17.06
2023-02-03T00:42:52.010Z,17.05
2023-02-03T00:43:02.027Z,17.05
2023-02-03T00:43:12.003Z,17.07
2023-02-03T00:43:22.041Z,17.07
2023-02-03T00:43:32.000Z,17.06
2023-02-03T00:43:42.024Z,17.06
2023-02-03T00:43:52.001Z,17.05
2023-02-03T00:44:02.016Z,17.07
2023-02-03T00:44:12.007Z,17.06
2023-02-03T00:44:22.030Z,17.05
2023-02-03T00:44:31.995Z,17.03
2023-02-03T00:44:42.029Z,17.05
2023-02-03T00:44:51.996Z,17.06
2023-02-03T00:45:02.020Z,17.05
2023-02-03T00:45:11.985Z,17.07
2023-02-03T00:45:22.027Z,17.06
2023-02-03T00:45:31.998Z,17.06
2023-02-03T00:45:42.058Z,17.03
2023-02-03T00:45:52.006Z,17.06
2023-02-03T00:46:02.055Z,17.05
2023-02-03T00:46:12.089Z,17.03
2023-02-03T00:46:22.018Z,17.05
2023-02-03T00:46:31.997Z,17.03
2023-02-03T00:46:42.016Z,17.05
2023-02-03T00:46:51.980Z,17.05
2023-02-03T00:47:02.013Z,17.06
2023-02-03T00:47:11.982Z,17.06
2023-02-03T00:47:22.011Z,17.09
2023-02-03T00:47:31.980Z,17.03
2023-02-03T00:47:42.005Z,17.05
2023-02-03T00:47:51.976Z,17.05
2023-02-03T00:48:01.985Z,17.05
2023-02-03T00:48:11.968Z,17.02
2023-02-03T00:48:21.987Z,17.05
2023-02-03T00:48:31.985Z,17.03
2023-02-03T00:48:41.981Z,17.05
2023-02-03T00:48:51.962Z,17.06
2023-02-03T00:49:01.975Z,17.06
2023-02-03T00:49:11.956Z,17.05
2023-02-03T00:49:21.979Z,17.06
2023-02-03T00:49:31.957Z,17.03
2023-02-03T00:49:41.997Z,17.05
2023-02-03T00:49:51.963Z,17.06
2023-02-03T00:50:01.979Z,17.05
2023-02-03T00:50:11.955Z,17.07
2023-02-03T00:50:21.971Z,17.03
2023-02-03T00:50:31.953Z,17.05
2023-02-03T00:50:41.967Z,17.05
2023-02-03T00:50:51.951Z,17.07
2023-02-03T00:51:11.946Z,17.05
2023-02-03T00:51:21.973Z,17.05
2023-02-03T00:51:31.947Z,17.05
2023-02-03T00:51:41.976Z,17.03
2023-02-03T00:51:51.943Z,17.03
2023-02-03T00:52:01.970Z,17.06
2023-02-03T00:52:11.941Z,17.05
2023-02-03T00:52:21.968Z,17.05
2023-02-03T00:52:31.939Z,17.05
2023-02-03T00:52:41.995Z,17.03
2023-02-03T00:52:51.936Z,17.05
2023-02-03T00:53:01.993Z,17.02
2023-02-03T00:53:11.931Z,17.03
2023-02-03T00:53:21.964Z,17.03
2023-02-03T00:53:31.929Z,17.05
2023-02-03T00:53:41.948Z,17.03
2023-02-03T00:53:51.933Z,17.05
2023-02-03T00:54:01.982Z,17.06
2023-02-03T00:54:11.929Z,17.03
2023-02-03T00:54:21.942Z,17.05
2023-02-03T00:54:33.597Z,17.06
2023-02-03T00:54:41.941Z,17.03
2023-02-03T00:54:51.932Z,17.06
2023-02-03T00:55:01.935Z,17.03
2023-02-03T00:55:11.917Z,17.03
2023-02-03T00:55:21.933Z,17.05
2023-02-03T00:55:31.916Z,17.05
2023-02-03T00:55:41.947Z,17.03
2023-02-03T00:55:51.914Z,17.03
2023-02-03T00:56:01.933Z,17.03
2023-02-03T00:56:11.913Z,17.09
2023-02-03T00:56:21.946Z,17.03
2023-02-03T00:56:31.910Z,17.02
2023-02-03T00:56:41.927Z,17.03
2023-02-03T00:56:51.912Z,17.05
2023-02-03T00:57:01.940Z,17.02
2023-02-03T00:57:11.927Z,17.02
2023-02-03T00:57:21.935Z,17.03
2023-02-03T00:57:31.910Z,17.02
2023-02-03T00:57:41.935Z,17.05
2023-02-03T00:57:51.902Z,17.03
2023-02-03T00:58:01.957Z,17.03
2023-02-03T00:58:11.897Z,17.06
2023-02-03T00:58:21.911Z,17.06
2023-02-03T00:58:41.925Z,17.02
2023-02-03T00:58:51.897Z,17.07
2023-02-03T00:59:01.988Z,17.05
2023-02-03T00:59:11.896Z,17.05
2023-02-03T00:59:21.920Z,17.06
2023-02-03T00:59:31.892Z,17.02
2023-02-03T00:59:41.907Z,17.06
2023-02-03T00:59:51.895Z,17.05
2023-02-03T01:00:01.902Z,17.03
2023-02-03T01:00:11.882Z,17.02
2023-02-03T01:00:21.900Z,17.03
2023-02-03T01:00:31.880Z,17.02
2023-02-03T01:00:41.905Z,17.05
2023-02-03T01:00:51.921Z,17.02
2023-02-03T01:01:01.948Z,17.02
2023-02-03T01:01:11.986Z,17.02
2023-02-03T01:01:21.939Z,17.03
2023-02-03T01:01:31.942Z,17.03
2023-02-03T01:01:41.905Z,17.03
2023-02-03T01:01:51.924Z,17.02
2023-02-03T01:02:01.957Z,17.02
2023-02-03T01:02:11.993Z,17.06
2023-02-03T01:02:21.905Z,17.05
2023-02-03T01:02:31.922Z,17.05
2023-02-03T01:02:41.986Z,17.05
2023-02-03T01:02:51.863Z,17.03
2023-02-03T01:03:01.883Z,17.03
2023-02-03T01:03:11.863Z,17.05
2023-02-03T01:03:21.910Z,17.05
2023-02-03T01:03:31.863Z,17.03
2023-02-03T01:03:41.874Z,17.03
2023-02-03T01:03:51.859Z,17.05
2023-02-03T01:04:01.889Z,17.02
2023-02-03T01:04:11.859Z,17.03
2023-02-03T01:04:21.887Z,17.03
2023-02-03T01:04:31.852Z,17.02
2023-02-03T01:04:41.896Z,17.03
2023-02-03T01:04:51.859Z,17.02
2023-02-03T01:05:01.883Z,17.03
2023-02-03T01:05:11.847Z,17.06
2023-02-03T01:05:21.886Z,17.03
2023-02-03T01:05:31.867Z,17.05
2023-02-03T01:05:41.861Z,17.03
2023-02-03T01:05:51.846Z,17.05
2023-02-03T01:06:01.900Z,17.05
2023-02-03T01:06:11.849Z,17.00
2023-02-03T01:06:31.838Z,17.02
2023-02-03T01:06:41.863Z,17.00
2023-02-03T01:06:51.836Z,17.02
2023-02-03T01:07:01.869Z,17.03
2023-02-03T01:07:11.842Z,17.05
2023-02-03T01:07:21.851Z,17.05
2023-02-03T01:07:31.853Z,17.02
2023-02-03T01:07:41.863Z,17.03
2023-02-03T01:07:51.835Z,17.03
2023-02-03T01:08:01.845Z,17.03
2023-02-03T01:08:11.828Z,17.03
2023-02-03T01:08:21.864Z,17.02
2023-02-03T01:08:31.826Z,17.02
2023-02-03T01:08:41.862Z,17.06
2023-02-03T01:08:51.823Z,17.05
2023-02-03T01:09:01.855Z,17.03
2023-02-03T01:09:11.833Z,17.03
2023-02-03T01:09:21.850Z,17.05
2023-02-03T01:09:31.847Z,17.02
2023-02-03T01:09:41.862Z,17.03
2023-02-03T01:09:51.823Z,17.02
2023-02-03T01:10:01.838Z,17.00
2023-02-03T01:10:11.815Z,17.03
2023-02-03T01:10:21.846Z,17.02
2023-02-03T01:10:31.839Z,17.03
2023-02-03T01:10:41.839Z,17.03
2023-02-03T01:10:51.807Z,17.02
2023-02-03T01:11:01.838Z,17.03
2023-02-03T01:11:11.810Z,17.05
2023-02-03T01:11:21.832Z,17.03
2023-02-03T01:11:31.835Z,17.05
2023-02-03T01:11:41.805Z,17.03
2023-02-03T01:11:51.835Z,17.03
2023-02-03T01:12:01.797Z,17.03
2023-02-03T01:12:11.832Z,17.00
2023-02-03T01:12:21.800Z,17.05
2023-02-03T01:12:31.851Z,17.02
2023-02-03T01:12:41.800Z,17.02
2023-02-03T01:12:51.812Z,17.05
2023-02-03T01:13:01.800Z,17.05
2023-02-03T01:13:11.832Z,17.02
2023-02-03T01:13:21.810Z,17.02
2023-02-03T01:13:31.815Z,16.99
2023-02-03T01:13:41.791Z,17.03
2023-02-03T01:13:51.833Z,17.00
2023-02-03T01:14:01.837Z,17.02
2023-02-03T01:14:11.811Z,17.02
2023-02-03T01:14:21.798Z,17.02
2023-02-03T01:14:31.810Z,17.03
2023-02-03T01:14:41.792Z,17.03
2023-02-03T01:14:51.817Z,17.05
2023-02-03T01:15:01.784Z,17.03
2023-02-03T01:15:11.814Z,17.02
2023-02-03T01:15:21.776Z,17.03
2023-02-03T01:15:31.797Z,17.02
2023-02-03T01:15:41.773Z,17.03
2023-02-03T01:15:51.809Z,17.00
2023-02-03T01:16:01.774Z,17.03
2023-02-03T01:16:11.873Z,17.02
2023-02-03T01:16:21.862Z,17.02
2023-02-03T01:16:31.803Z,17.02
2023-02-03T01:16:41.783Z,17.00
2023-02-03T01:16:51.867Z,17.00
2023-02-03T01:17:01.843Z,17.00
2023-02-03T01:17:11.781Z,17.03
2023-02-03T01:17:21.764Z,17.03
2023-02-03T01:17:31.780Z,17.03
2023-02-03T01:17:41.758Z,17.02
2023-02-03T01:17:51.799Z,17.03
2023-02-03T01:18:01.758Z,17.03
2023-02-03T01:18:11.771Z,17.02
2023-02-03T01:18:21.757Z,17.02
2023-02-03T01:18:31.775Z,17.02
2023-02-03T01:18:41.747Z,17.05
2023-02-03T01:18:51.803Z,17.02
2023-02-03T01:19:01.749Z,17.00
2023-02-03T01:19:12.125Z,17.00
2023-02-03T01:19:21.751Z,17.03
2023-02-03T01:19:31.763Z,17.00
2023-02-03T01:19:41.751Z,17.02
2023-02-03T01:19:51.775Z,17.02
2023-02-03T01:20:01.745Z,17.00
2023-02-03T01:20:11.778Z,17.03
2023-02-03T01:20:21.740Z,17.02
2023-02-03T01:20:31.768Z,17.02
2023-02-03T01:20:41.740Z,17.02
2023-02-03T01:20:51.781Z,17.00
2023-02-03T01:21:01.736Z,17.02
2023-02-03T01:21:11.765Z,17.00
2023-02-03T01:21:21.739Z,17.05
2023-02-03T01:21:41.732Z,17.02
2023-02-03T01:21:51.752Z,17.02
2023-02-03T01:22:01.737Z,17.03
2023-02-03T01:22:11.747Z,17.02
2023-02-03T01:22:21.743Z,17.02
2023-02-03T01:22:31.785Z,17.02
2023-02-03T01:22:41.726Z,17.02
2023-02-03T01:22:51.741Z,17.02
2023-02-03T01:23:01.732Z,17.00
2023-02-03T01:23:11.781Z,17.02
2023-02-03T01:23:21.719Z,17.00
2023-02-03T01:23:31.752Z,17.02
2023-02-03T01:23:41.717Z,16.99
2023-02-03T01:23:51.747Z,17.02
2023-02-03T01:24:01.718Z,16.99
2023-02-03T01:24:11.760Z,17.00
2023-02-03T01:24:21.722Z,17.00
2023-02-03T01:24:31.744Z,16.99
2023-02-03T01:24:41.711Z,17.00
2023-02-03T01:24:51.747Z,17.02
2023-02-03T01:25:01.710Z,17.00
2023-02-03T01:25:11.732Z,17.00
2023-02-03T01:25:21.707Z,17.00
2023-02-03T01:25:31.721Z,17.02
2023-02-03T01:25:41.703Z,17.00
2023-02-03T01:25:51.724Z,16.99
2023-02-03T01:26:01.706Z,16.98
2023-02-03T01:26:11.720Z,16.99
2023-02-03T01:26:21.705Z,17.02
2023-02-03T01:26:41.696Z,17.02
2023-02-03T01:26:51.713Z,16.99
2023-02-03T01:27:01.700Z,16.99
2023-02-03T01:27:11.713Z,16.99
2023-02-03T01:27:21.692Z,17.00
2023-02-03T01:27:31.718Z,16.99
2023-02-03T01:27:41.724Z,16.99
2023-02-03T01:27:51.898Z,17.02
2023-02-03T01:28:01.731Z,16.99
2023-02-03T01:28:11.747Z,17.00
2023-02-03T01:28:21.689Z,16.99
2023-02-03T01:28:31.722Z,17.02
2023-02-03T01:28:41.687Z,17.00
2023-02-03T01:28:51.713Z,17.02
2023-02-03T01:29:01.680Z,17.00
2023-02-03T01:29:11.713Z,16.98
2023-02-03T01:29:21.694Z,17.00
2023-02-03T01:29:31.711Z,17.02
2023-02-03T01:29:41.715Z,17.00
2023-02-03T01:29:51.706Z,17.02
2023-02-03T01:30:01.675Z,17.02
2023-02-03T01:30:11.702Z,17.00
2023-02-03T01:30:21.670Z,16.99
2023-02-03T01:30:31.754Z,17.03
2023-02-03T01:30:41.804Z,17.00
2023-02-03T01:30:51.801Z,17.02
2023-02-03T01:31:01.728Z,16.96
2023-02-03T01:31:11.986Z,17.00
2023-02-03T01:31:21.752Z,16.99
2023-02-03T01:31:40.059Z,17.02
2023-02-03T01:31:54.984Z,16.99
2023-02-03T01:32:04.894Z,17.02
2023-02-03T01:32:14.852Z,16.98
2023-02-03T01:32:24.839Z,17.03
2023-02-03T01:32:34.857Z,16.99
2023-02-03T01:32:44.838Z,16.99
2023-02-03T01:32:54.871Z,17.02
2023-02-03T01:33:04.840Z,17.00
2023-02-03T01:33:14.883Z,16.99
2023-02-03T01:33:24.829Z,16.98
2023-02-03T01:33:34.845Z,17.00
2023-02-03T01:33:44.826Z,17.00
2023-02-03T01:33:54.841Z,17.00
2023-02-03T01:34:04.825Z,16.99
2023-02-03T01:34:14.857Z,17.02
2023-02-03T01:34:24.841Z,16.99
2023-02-03T01:34:34.853Z,16.99
2023-02-03T01:34:44.860Z,17.02
2023-02-03T01:34:54.835Z,16.98
2023-02-03T01:35:04.816Z,17.00
2023-02-03T01:35:14.851Z,16.99
2023-02-03T01:35:24.818Z,16.98
2023-02-03T01:35:34.853Z,16.98
2023-02-03T01:35:44.825Z,16.96
2023-02-03T01:35:54.835Z,16.98
2023-02-03T01:36:04.815Z,17.00
2023-02-03T01:36:14.851Z,16.95
2023-02-03T01:36:24.809Z,17.02
2023-02-03T01:36:34.840Z,16.98
2023-02-03T01:36:44.811Z,16.99
2023-02-03T01:36:54.831Z,16.99
2023-02-03T01:37:04.806Z,16.98
2023-02-03T01:37:14.836Z,17.02
2023-02-03T01:37:24.809Z,16.99
2023-02-03T01:37:34.832Z,16.98
2023-02-03T01:37:44.805Z,17.00
2023-02-03T01:37:54.849Z,16.99
2023-02-03T01:38:04.795Z,16.96
2023-02-03T01:38:14.827Z,17.00
2023-02-03T01:38:24.792Z,16.99
2023-02-03T01:38:34.824Z,16.96
2023-02-03T01:38:44.824Z,16.99
2023-02-03T01:38:54.818Z,17.02
2023-02-03T01:39:04.791Z,17.02
2023-02-03T01:39:14.807Z,16.98
2023-02-03T01:39:24.786Z,16.99
2023-02-03T01:39:34.808Z,16.98
2023-02-03T01:39:44.789Z,16.99
2023-02-03T01:39:54.816Z,16.99
2023-02-03T01:40:04.787Z,17.00
2023-02-03T01:40:14.805Z,16.96
2023-02-03T01:40:25.164Z,16.99
2023-02-03T01:40:34.843Z,16.99
2023-02-03T01:40:44.797Z,16.99
2023-02-03T01:40:54.796Z,16.98
2023-02-03T01:41:04.776Z,16.99
2023-02-03T01:41:14.793Z,16.96
2023-02-03T01:41:24.783Z,17.02
2023-02-03T01:41:34.787Z,16.98
2023-02-03T01:41:44.776Z,16.96
2023-02-03T01:42:04.771Z,16.98
2023-02-03T01:42:14.798Z,17.02
2023-02-03T01:42:24.764Z,16.98
2023-02-03T01:42:34.795Z,16.98
2023-02-03T01:42:44.764Z,16.98
2023-02-03T01:42:54.801Z,16.98
2023-02-03T01:43:04.759Z,17.00
2023-02-03T01:43:14.777Z,16.98
2023-02-03T01:43:24.756Z,17.00
2023-02-03T01:43:34.789Z,16.98
2023-02-03T01:43:44.755Z,16.98
2023-02-03T01:43:54.770Z,16.98
2023-02-03T01:44:04.754Z,16.96
2023-02-03T01:44:14.775Z,16.98
2023-02-03T01:44:24.751Z,16.99
2023-02-03T01:44:44.759Z,17.00
2023-02-03T01:44:54.764Z,16.99
2023-02-03T01:45:04.745Z,17.00
2023-02-03T01:45:14.764Z,16.98
2023-02-03T01:45:24.757Z,16.98
2023-02-03T01:45:34.780Z,16.95
2023-02-03T01:45:44.792Z,16.96
2023-02-03T01:45:54.787Z,16.96
2023-02-03T01:46:04.858Z,16.98
2023-02-03T01:46:14.794Z,16.98
2023-02-03T01:46:24.832Z,16.96
2023-02-03T01:46:34.769Z,16.96
2023-02-03T01:46:44.752Z,17.00
2023-02-03T01:46:54.776Z,16.96
2023-02-03T01:47:04.737Z,16.99
2023-02-03T01:47:14.763Z,17.00
2023-02-03T01:47:24.737Z,16.96
2023-02-03T01:47:34.762Z,16.99
2023-02-03T01:47:44.725Z,16.95
2023-02-03T01:47:54.760Z,16.98
2023-02-03T01:48:04.725Z,16.98
2023-02-03T01:48:14.740Z,16.95
2023-02-03T01:48:24.719Z,16.96
2023-02-03T01:48:34.738Z,16.98
2023-02-03T01:48:44.720Z,16.98
2023-02-03T01:48:54.756Z,16.99
2023-02-03T01:49:04.724Z,16.98
2023-02-03T01:49:14.735Z,16.96
2023-02-03T01:49:24.717Z,16.96
2023-02-03T01:49:34.730Z,16.96
2023-02-03T01:49:44.713Z,16.95
2023-02-03T01:49:54.730Z,16.96
2023-02-03T01:50:04.713Z,16.95
2023-02-03T01:50:14.745Z,16.95
2023-02-03T01:50:25.024Z,16.98
2023-02-03T01:50:34.741Z,16.98
2023-02-03T01:50:44.723Z,16.96
2023-02-03T01:50:54.724Z,16.98
2023-02-03T01:51:04.709Z,16.92
2023-02-03T01:51:14.736Z,16.96
2023-02-03T01:51:24.725Z,16.98
2023-02-03T01:51:34.715Z,16.99
2023-02-03T01:51:44.730Z,16.98
2023-02-03T01:51:54.721Z,16.96
2023-02-03T01:52:04.697Z,16.96
2023-02-03T01:52:14.729Z,16.99
2023-02-03T01:52:24.710Z,16.96
2023-02-03T01:52:34.709Z,16.96
2023-02-03T01:52:44.705Z,16.96
2023-02-03T01:52:54.725Z,16.99
2023-02-03T01:53:04.701Z,16.95
2023-02-03T01:53:14.739Z,16.96
2023-02-03T01:53:24.684Z,16.95
2023-02-03T01:53:34.709Z,16.98
2023-02-03T01:53:44.687Z,16.96
2023-02-03T01:53:54.715Z,16.95
2023-02-03T01:54:04.681Z,16.96
2023-02-03T01:54:14.684Z,16.96
2023-02-03T01:54:24.703Z,16.96
2023-02-03T01:54:34.678Z,16.98
2023-02-03T01:54:54.672Z,16.96
2023-02-03T01:55:04.711Z,16.95
2023-02-03T01:55:14.680Z,16.98
2023-02-03T01:55:24.701Z,16.96
2023-02-03T01:55:34.692Z,17.00
2023-02-03T01:55:44.692Z,16.98
2023-02-03T01:55:54.673Z,16.96
2023-02-03T01:56:04.686Z,16.98
2023-02-03T01:56:14.673Z,16.96
2023-02-03T01:56:24.688Z,16.95
2023-02-03T01:56:34.678Z,16.96
2023-02-03T01:56:44.688Z,16.98
2023-02-03T01:56:54.671Z,16.99
2023-02-03T01:57:04.692Z,16.99
2023-02-03T01:57:14.662Z,16.96
2023-02-03T01:57:34.661Z,16.98
2023-02-03T01:57:44.688Z,16.98
2023-02-03T01:57:54.664Z,16.92
2023-02-03T01:58:04.696Z,16.98
2023-02-03T01:58:14.651Z,16.98
2023-02-03T01:58:24.691Z,16.98
2023-02-03T01:58:34.649Z,16.99
2023-02-03T01:58:44.665Z,16.96
2023-02-03T01:58:54.649Z,16.98
2023-02-03T01:59:04.668Z,16.96
2023-02-03T01:59:14.646Z,16.95
2023-02-03T01:59:24.678Z,16.95
2023-02-03T01:59:34.654Z,16.96
2023-02-03T01:59:44.656Z,16.99
2023-02-03T02:00:04.671Z,16.96
2023-02-03T02:00:14.655Z,16.95
2023-02-03T02:00:24.909Z,16.98
2023-02-03T02:00:34.637Z,16.95
2023-02-03T02:00:44.672Z,16.96
2023-02-03T02:00:54.637Z,16.95
2023-02-03T02:01:04.705Z,16.96
2023-02-03T02:01:14.709Z,16.95
2023-02-03T02:01:24.808Z,16.96
2023-02-03T02:01:34.725Z,16.99
2023-02-03T02:01:44.761Z,16.92
2023-02-03T02:01:54.623Z,16.95
2023-02-03T02:02:04.657Z,16.95
2023-02-03T02:02:14.642Z,16.95
2023-02-03T02:02:24.720Z,16.96
2023-02-03T02:02:34.675Z,16.95
2023-02-03T02:02:44.710Z,16.95
2023-02-03T02:02:54.671Z,16.96
2023-02-03T02:03:04.643Z,16.92
2023-02-03T02:03:14.624Z,16.96
2023-02-03T02:03:24.630Z,16.92
2023-02-03T02:03:34.619Z,16.95
2023-02-03T02:03:44.654Z,16.98
2023-02-03T02:03:54.624Z,16.92
2023-02-03T02:04:04.646Z,16.95
2023-02-03T02:04:14.610Z,16.99
2023-02-03T02:04:24.632Z,16.98
2023-02-03T02:04:34.608Z,16.95
2023-02-03T02:04:44.640Z,16.98
2023-02-03T02:04:54.614Z,16.96
2023-02-03T02:05:14.600Z,16.96
2023-02-03T02:05:24.620Z,16.95
2023-02-03T02:05:34.607Z,16.98
2023-02-03T02:05:44.674Z,16.98
2023-02-03T02:05:54.598Z,16.95
2023-02-03T02:06:04.617Z,16.96
2023-02-03T02:06:14.618Z,16.98
2023-02-03T02:06:24.632Z,16.98
2023-02-03T02:06:34.595Z,16.91
2023-02-03T02:06:44.618Z,16.95
2023-02-03T02:06:54.606Z,16.96
2023-02-03T02:07:04.609Z,16.95
2023-02-03T02:07:14.588Z,16.92
2023-02-03T02:07:24.615Z,16.96
2023-02-03T02:07:34.594Z,16.96
2023-02-03T02:07:44.617Z,16.96
2023-02-03T02:07:54.584Z,16.98
2023-02-03T02:08:04.620Z,16.96
2023-02-03T02:08:14.578Z,16.95
2023-02-03T02:08:24.599Z,16.91
2023-02-03T02:08:34.578Z,16.96
2023-02-03T02:08:44.595Z,16.95
2023-02-03T02:08:54.574Z,16.96
2023-02-03T02:09:04.607Z,16.96
2023-02-03T02:09:14.572Z,16.95
2023-02-03T02:09:24.608Z,16.98
2023-02-03T02:09:34.574Z,16.95
2023-02-03T02:09:44.588Z,16.98
2023-02-03T02:09:54.569Z,16.99
2023-02-03T02:10:14.665Z,16.96
2023-02-03T02:10:25.030Z,16.96
2023-02-03T02:10:34.565Z,16.98
2023-02-03T02:10:44.579Z,16.96
2023-02-03T02:10:54.563Z,16.96
2023-02-03T02:11:04.592Z,16.95
2023-02-03T02:11:14.568Z,16.95
2023-02-03T02:11:24.580Z,16.96
2023-02-03T02:11:34.566Z,16.96
2023-02-03T02:11:44.602Z,16.96